NWS Home NWS Lubbock West Texas Mesonet Central Sector Latest Conditions as of 1130 AM, Sun Nov 18, 2018

Latest   N   C   S   Daily Sum   3hrΔ   24hrΔ   Soil Data 
Site Map   24hr Precip   72hr Precip   Google Plot


Station Time of Last Temp Dew Pt. RH Wind Direction Wind Speed Wind Gust Max Wind Max Temp Min Temp Max RH Min RH Altimeter 1HR Rain Today's Rain Solar Rad Wind Chill
Abernathy 5ENE  11:25 AM 32 28 85% N810 23 mph 3° @ 1225 AM 32 28 97 85 30.31" 0 0.00 180 25
Aiken 3WSW  11:25 AM 31 26 79% NW1113 23 mph 345° @ 0204 AM 32 27 95 79 30.31" 0 0.00 198 22
Amherst 1NE  11:25 AM 31 27 83% NW69 21 mph 11° @ 1225 AM 32 28 89 82 30.30" 0 0.00 140 25
Anton 6SSW  11:25 AM 33 29 86% N710 23 mph 4° @ 0150 AM 33 29 92 85 30.31" 0 0.00 259 27
Aspermont 3NE  11:25 AM 37 27 68% N813 24 mph 345° @ 0225 AM 37 33 81 68 30.36" 0 0.00 330  
Bootleg 11WNW  11:25 AM 26 25 96% N22 16 mph 6° @ 0240 AM 26 22 99 94 30.30" 0 0.00 146  
Brownfield 2S  11:25 AM 33 26 74% NE48 25 mph 5° @ 1240 AM 33 30 85 74 30.32" 0 0.00 269  
Caprock Canyons State Park  11:25 AM 33 26 74% N69 24 mph 356° @ 0139 AM 33 28 90 74 30.33" 0 0.00 175 27
Childress 2NNE  11:25 AM 34 25 69% NW1214 25 mph 345° @ 0210 AM 34 29 86 69 30.34" 0 0.00 322 25
Clarendon 2WSW  11:25 AM 32 25 75% N1115 23 mph 350° @ 0105 AM 32 27 88 75 30.31" 0 0.00 293 23
Claude 12SW  11:25 AM 30 26 84% NW911 24 mph 355° @ 0120 AM 30 25 96 83 30.30" 0 0.00 232 22
Crowell 1E  11:25 AM 36 26 65% N911 25 mph 8° @ 0202 AM 36 32 83 65 30.37" 0 0.00 348  
Denver City 7WNW  11:25 AM 32 25 78% N47 23 mph 25° @ 1220 AM 32 29 87 78 30.31" 0 0.00 171  
Dimmitt 2NE  11:25 AM 29 27 96% NW810 20 mph 1° @ 0100 AM 29 25 99 94 30.29" 0 0.00 131 21
Dora NM 2SW  11:25 AM 28 23 84% NE56 23 mph 33° @ 1240 AM 29 26 92 81 30.29" 0 0.00 148  
Earth 9WSW  11:25 AM 32 27 81% N57 19 mph 20° @ 0509 AM 32 27 92 81 30.31" 0 0.00 211 27
Estelline 3SSE  11:25 AM 36 25 66% NW78 22 mph 349° @ 0128 AM 36 30 84 65 30.35" 0 0.00 324  
Floydada 2NNE  11:25 AM 34 25 72% NW68 22 mph 356° @ 1235 AM 34 28 90 72 30.30" 0 0.00 224 29
Fluvanna 3WNW  11:25 AM 34 26 73% N611 22 mph 357° @ 0215 AM 34 31 82 72 30.32" 0 0.00 200 29
Friona 2NE  11:25 AM 29 28 96% NE35 20 mph 2° @ 0320 AM 29 24 99 96 30.30" 0 0.00 147  
Gail 2ESE  11:25 AM 36 26 67% NE711 23 mph 356° @ 1235 AM 36 33 76 67 30.33" 0 0.00 167  
Goodlett 3W  11:25 AM 34 24 67% NW1013 24 mph 331° @ 0240 AM 34 30 83 67 30.36" 0 0.00 273 26
Graham 5SSW  11:25 AM 34 28 77% N59 23 mph 350° @ 0215 AM 34 31 83 76 30.32" 0 0.00 210  
Guthrie 10WSW  11:25 AM 36 25 65% N812 26 mph 353° @ 1205 AM 36 32 82 65 30.34" 0 0.00 280  
Hackberry 2 SSE  11:25 AM 35 25 66% NW911 26 mph 337° @ 1249 AM 35 31 84 64 30.35" 0 0.00 423 28
Happy 1E  11:25 AM 30 27 87% N1013 23 mph 5° @ 1206 AM 30 26 96 85 30.30" 0 0.00 267 21
Hart 3N  11:25 AM 30 28 93% NW68 21 mph 349° @ 0135 AM 30 26 99 92 30.30" 0 0.00 137 24
Haskell 1NW  11:25 AM 35 27 72% N1317 24 mph 343° @ 0125 AM 38 33 84 72 30.35" 0 0.00 314 26
Hereford 2NW  11:25 AM 29 28 96% NW710 19 mph 3° @ 1240 AM 29 26 97 89 30.29" 0 0.00 157 22
Hobbs NM 5NW  11:25 AM 32 26 78% N46 26 mph 26° @ 1244 AM 33 29 87 77 30.34" 0 0.00 130  
Jayton 1SSE  11:25 AM 36 27 69% NW68 21 mph 352° @ 0305 AM 36 32 82 69 30.35" 0 0.00 328  
Knox City 3NW  11:25 AM 37 27 65% NW914 24 mph 336° @ 1255 AM 38 34 81 65 30.37" 0 0.00 263  
Lake Alan Henry 1NW  11:25 AM 37 29 73% N36 20 mph 12° @ 0401 AM 37 33 80 73 30.34" 0 0.00 234  
Lamesa 2SE  11:25 AM 34 27 76% N36 24 mph 9° @ 1230 AM 35 31 84 76 30.34" 0 0.00 234  
Lesley 2S  11:25 AM 37 26 63% N911 23 mph 342° @ 0110 AM 37 30 89 63 30.34" 0 0.00 290  
Levelland 4S  11:25 AM 33 26 75% N48 25 mph 7° @ 0100 AM 33 29 86 75 30.30" 0 0.00 234  
Lubbock 3WNW TTU  11:25 AM 35 28 76% NW58 21 mph 360° @ 0200 AM 35 30 94 76 30.31" 0 0.00 312  
Memphis 1NE  11:25 AM 34 27 74% N813 21 mph 345° @ 0215 AM 34 29 91 74 30.34" 0 0.00 263 27
Morton 1ENE  11:25 AM 34 25 72% NE46 20 mph 21° @ 1230 AM 34 28 86 72 30.30" 0 0.00 223  
Muleshoe 2SSW  11:25 AM 32 27 83% NW47 18 mph 8° @ 0155 AM 32 26 96 83 30.30" 0 0.00 154  
New Home  11:25 AM 34 27 77% NE710 20 mph 9° @ 1224 AM 34 30 86 76 30.32" 0 0.00 149 28
Northfield 1S  11:25 AM 36 24 63% NW811 24 mph 357° @ 1210 AM 36 30 84 63 30.34" 0 0.00 286  
O'Donnell 1N  11:25 AM 35 26 70% NE411 25 mph 4° @ 0110 AM 35 31 80 69 30.32" 0 0.00 260  
Odell 4ENE  11:25 AM 34 25 68% NW1112 26 mph 342° @ 1259 AM 35 31 84 67 30.37" 0 0.00 201 26
Olton 6S  11:25 AM 31 27 86% NW79 21 mph 4° @ 0155 AM 31 28 94 85 30.30" 0 0.00 140 25
Paducah 10SW  11:25 AM 35 26 69% NW1113 26 mph 0° @ 1250 AM 35 30 87 69 30.34" 0 0.00 250 27
Palo Duro 4E (JA Ranch)  11:25 AM 34 25 70% N1315 23 mph 345° @ 0120 AM 34 28 87 70 30.33" 0 0.00 248 25
Palo Duro Canyon SP Floor  11:25 AM 34 26 73% NW810 20 mph 332° @ 0312 AM 34 29 86 72 30.33" 0 0.00 208 27
Palo Duro Canyon State Park Rim  11:25 AM 31 25 79% NW1012 22 mph 349° @ 0135 AM 31 26 92 79 30.31" 0 0.00 241 23
Plains 3N  11:25 AM 32 26 77% N46 24 mph 4° @ 0100 AM 32 29 90 77 30.31" 0 0.00 208  
Plainview 1S  11:25 AM 32 27 83% NW811 22 mph 355° @ 0155 AM 32 28 97 83 30.30" 0 0.00 179 25
Post 1NE  11:25 AM 37 27 66% N58 23 mph 359° @ 0220 AM 37 32 77 66 30.33" 0 0.00 312  
Ralls 1SE  11:25 AM 35 26 70% NW911 22 mph 4° @ 0100 AM 35 29 81 70 30.31" 0 0.00 359 28
Reese Center  11:25 AM 33 27 80% N510 23 mph 16° @ 0220 AM 33 29 88 80 30.30" 0 0.00 255 28
Roaring Springs 3N  11:25 AM 34 27 78% NW1013 26 mph 351° @ 1225 AM 34 29 95 78 30.32" 0 0.00 230 26
Rotan 5W  11:25 AM 36 27 70% NW58 24 mph 340° @ 1232 AM 37 33 80 70 30.35" 0 0.00 339  
Seagraves 1SW  11:25 AM 34 26 74% N48 26 mph 2° @ 1225 AM 34 30 86 74 30.32" 0 0.00 339  
Seminole 2NNE  11:25 AM 34 26 73% NW45 23 mph 4° @ 1215 AM 34 30 84 72 30.32" 0 0.00 292  
Seymour 3NW  11:25 AM 35 26 70% NW1215 26 mph 329° @ 0105 AM 38 33 82 70 30.36" 0 0.00 243 27
Silverton 7ESE  11:25 AM 32 25 74% NW1114 25 mph 1° @ 0135 AM 32 27 92 74 30.31" 0 0.00 235 23
Slaton 2NE  11:25 AM 34 27 75% N611 23 mph 10° @ 0155 AM 34 30 84 75 30.31" 0 0.00 263 28
Snyder 3E  11:25 AM 36 28 72% NW812 24 mph 2° @ 1205 AM 36 32 88 72 30.33" 0 0.00 283  
Snyder 3SSW  11:25 AM 35 27 71% N67 22 mph 23° @ 0102 AM 36 32 82 70 30.34" 0 0.00 319  
Spur 1W  11:25 AM 37 26 65% NE911 22 mph 9° @ 0535 AM 37 31 81 65 30.33" 0 0.00 325  
Stamford 5ESE  11:25 AM 36 28 72% NW68 23 mph 357° @ 0536 AM 39 34 85 72 30.36" 0 0.00 279  
Sundown 8WSW  11:25 AM 33 26 74% NW58 24 mph 5° @ 0100 AM 33 29 86 74 30.30" 0 0.00 215 28
Tahoka 3NNE  11:25 AM 34 27 73% N57 24 mph 8° @ 0442 AM 35 31 81 72 30.31" 0 0.00 192  
Tatum NM 2SW  11:25 AM 31 25 79% NE25 22 mph 28° @ 1215 AM 31 28 91 79 30.31" 0 0.00 202  
Throckmorton 1SW  11:25 AM 37 27 68% N1017 23 mph 337° @ 0207 AM 39 34 83 66 30.36" 0 0.00 262  
Tulia 2ENE  11:25 AM 30 25 80% NW810 23 mph 350° @ 0155 AM 30 26 93 80 30.30" 0 0.00 168 23
Turkey 2WSW  11:25 AM 34 24 70% NW914 23 mph 323° @ 0220 AM 34 29 82 70 30.33" 0 0.00 241 27
Umbarger 3NNE  11:25 AM 29 27 92% NW910 19 mph 3° @ 1246 AM 29 25 97 91 30.30" 0 0.00 199 20
Vigo Park  11:25 AM 31 25 79% N911 20 mph 357° @ 1241 AM 31 26 95 78 30.31" 0 0.00 218 23
Weinert 2NNE  11:25 AM 36 26 67% N913 25 mph 347° @ 1218 AM 38 33 79 66 30.36" 0 0.00 268  
Welch  11:25 AM 35 27 72% N57 25 mph 6° @ 1227 AM 35 31 85 72 30.34" 0 0.00 230  
White River Lake 6NW  11:25 AM 36 26 67% NW810 24 mph 355° @ 0550 AM 36 31 81 65 30.31" 0 0.00 195  
Wolfforth 6SSW  11:25 AM 34 28 79% N69 25 mph 1° @ 0145 AM 34 30 86 79 30.31" 0 0.00 282 29

West Texas Mesonet Home   Site Map/Menu  NWS Lubbock Soil Data  Daily Summary Page  24hr Precip  72hr Precip  Google Plot